createdAt,value
2022-10-14T00:00:13.207Z,5.90
2022-10-14T00:02:41.069Z,5.13
2022-10-14T00:05:09.876Z,6.10
2022-10-14T00:07:37.784Z,5.67
2022-10-14T00:10:07.074Z,5.17
2022-10-14T00:12:35.054Z,5.90
2022-10-14T00:15:03.191Z,5.03
2022-10-14T00:17:32.389Z,5.00
2022-10-14T00:20:00.700Z,5.63
2022-10-14T00:22:28.517Z,6.93
2022-10-14T00:24:56.474Z,6.57
2022-10-14T00:27:24.379Z,5.33
2022-10-14T00:29:52.258Z,5.40
2022-10-14T00:32:20.089Z,6.13
2022-10-14T00:34:49.217Z,5.53
2022-10-14T00:37:17.060Z,5.30
2022-10-14T00:39:44.865Z,5.50
2022-10-14T00:42:15.088Z,4.93
2022-10-14T00:45:17.410Z,5.03
2022-10-14T00:47:45.731Z,5.40
2022-10-14T00:50:16.911Z,5.83
2022-10-14T00:52:45.275Z,5.47
2022-10-14T00:55:16.810Z,5.40
2022-10-14T00:57:45.392Z,5.17
2022-10-14T01:00:16.782Z,6.23
2022-10-14T01:02:44.741Z,5.00
2022-10-14T01:05:16.311Z,4.77
2022-10-14T01:08:03.928Z,5.20
2022-10-14T01:10:40.482Z,4.77
2022-10-14T01:13:18.581Z,4.60
2022-10-14T01:15:56.029Z,5.47
2022-10-14T01:18:37.890Z,4.33
2022-10-14T01:21:17.254Z,4.70
2022-10-14T01:24:12.420Z,5.50
2022-10-14T01:27:05.974Z,4.90
2022-10-14T01:30:09.547Z,5.50
2022-10-14T01:32:52.972Z,4.50
2022-10-14T01:35:30.046Z,5.20
2022-10-14T01:38:02.599Z,5.60
2022-10-14T01:40:36.686Z,5.47
2022-10-14T01:43:06.853Z,5.23
2022-10-14T01:45:37.358Z,5.00
2022-10-14T01:48:07.524Z,4.87
2022-10-14T01:50:37.161Z,4.80
2022-10-14T01:53:08.394Z,4.60
2022-10-14T01:55:40.139Z,5.07
2022-10-14T01:58:10.157Z,5.10
2022-10-14T02:00:38.771Z,5.00
2022-10-14T02:03:07.969Z,4.37
2022-10-14T02:05:42.491Z,4.43
2022-10-14T02:08:16.778Z,4.57
2022-10-14T02:10:59.539Z,4.50
2022-10-14T02:13:51.270Z,4.40
2022-10-14T02:16:28.020Z,4.40
2022-10-14T02:19:04.335Z,4.63
2022-10-14T02:21:38.276Z,4.60
2022-10-14T02:24:12.445Z,4.63
2022-10-14T02:26:41.659Z,4.30
2022-10-14T02:29:09.751Z,4.60
2022-10-14T02:31:40.103Z,4.57
2022-10-14T02:34:13.507Z,4.37
2022-10-14T02:36:42.796Z,4.27
2022-10-14T02:39:14.452Z,4.33
2022-10-14T02:41:42.643Z,4.60
2022-10-14T02:44:10.567Z,4.77
2022-10-14T02:46:41.081Z,4.17
2022-10-14T02:49:10.330Z,4.27
2022-10-14T02:51:38.247Z,4.47
2022-10-14T02:54:06.321Z,4.87
2022-10-14T02:56:34.159Z,4.50
2022-10-14T02:59:02.027Z,4.70
2022-10-14T03:01:32.671Z,5.10
2022-10-14T03:04:04.458Z,4.70
2022-10-14T03:06:33.635Z,4.20
2022-10-14T03:09:01.496Z,3.83
2022-10-14T03:11:29.294Z,3.53
2022-10-14T03:13:57.138Z,5.17
2022-10-14T03:16:24.965Z,4.03
2022-10-14T03:18:52.821Z,4.83
2022-10-14T03:21:21.423Z,4.23
2022-10-14T03:23:50.657Z,4.37
2022-10-14T03:26:18.555Z,4.00
2022-10-14T03:28:46.550Z,4.50
2022-10-14T03:31:14.456Z,4.40
2022-10-14T03:33:42.469Z,4.80
2022-10-14T03:36:10.497Z,4.30
2022-10-14T03:38:38.388Z,4.30
2022-10-14T03:41:07.674Z,4.30
2022-10-14T03:43:35.517Z,4.20
2022-10-14T03:46:03.356Z,4.57
2022-10-14T03:48:31.226Z,3.90
2022-10-14T03:50:59.093Z,4.30
2022-10-14T03:53:26.981Z,4.30
2022-10-14T03:55:54.805Z,5.07
2022-10-14T03:58:24.051Z,3.70
2022-10-14T04:00:51.919Z,4.03
2022-10-14T04:03:19.792Z,4.30
2022-10-14T04:05:47.619Z,4.40
2022-10-14T04:08:15.431Z,4.20
2022-10-14T04:10:43.263Z,4.50
2022-10-14T04:13:11.185Z,4.30
2022-10-14T04:15:40.372Z,4.50
2022-10-14T04:18:08.203Z,4.70
2022-10-14T04:20:36.024Z,4.20
2022-10-14T04:23:04.437Z,4.90
2022-10-14T04:25:32.361Z,4.70
2022-10-14T04:28:00.188Z,4.60
2022-10-14T04:30:28.459Z,4.03
2022-10-14T04:32:57.661Z,4.30
2022-10-14T04:35:25.514Z,4.03
2022-10-14T04:37:53.364Z,4.53
2022-10-14T04:40:25.537Z,4.27
2022-10-14T04:42:57.211Z,3.83
2022-10-14T04:45:25.817Z,4.93
2022-10-14T04:47:53.870Z,4.90
2022-10-14T04:50:23.084Z,4.27
2022-10-14T04:52:50.867Z,4.10
2022-10-14T04:55:18.948Z,3.97
2022-10-14T04:57:46.775Z,4.13
2022-10-14T05:00:16.030Z,4.37
2022-10-14T05:02:43.960Z,4.57
2022-10-14T05:05:11.920Z,4.90
2022-10-14T05:07:41.275Z,4.50
2022-10-14T05:10:10.723Z,4.63
2022-10-14T05:12:39.641Z,4.47
2022-10-14T05:15:08.512Z,4.53
2022-10-14T05:17:37.858Z,4.60
2022-10-14T05:20:06.562Z,4.37
2022-10-14T05:22:34.731Z,4.23
2022-10-14T05:25:03.993Z,5.13
2022-10-14T05:27:31.879Z,4.67
2022-10-14T05:29:59.677Z,4.43
2022-10-14T05:32:27.684Z,5.03
2022-10-14T05:34:55.464Z,5.20
2022-10-14T05:37:23.280Z,4.17
2022-10-14T05:39:51.194Z,4.90
2022-10-14T05:42:20.734Z,4.07
2022-10-14T05:44:48.675Z,3.90
2022-10-14T05:47:16.727Z,4.07
2022-10-14T05:49:44.699Z,3.70
2022-10-14T05:52:12.520Z,4.60
2022-10-14T05:54:40.328Z,4.10
2022-10-14T05:57:08.248Z,4.73
2022-10-14T05:59:37.482Z,3.67
2022-10-14T06:02:05.338Z,4.00
2022-10-14T06:04:33.252Z,4.00
2022-10-14T06:07:01.068Z,4.30
2022-10-14T06:09:31.138Z,4.07
2022-10-14T06:11:59.046Z,4.13
2022-10-14T06:14:26.945Z,3.90
2022-10-14T06:16:56.282Z,3.80
2022-10-14T06:19:24.126Z,4.40
2022-10-14T06:21:51.951Z,4.50
2022-10-14T06:24:19.740Z,4.30
2022-10-14T06:26:48.410Z,4.40
2022-10-14T06:29:16.448Z,4.57
2022-10-14T06:31:44.684Z,4.63
2022-10-14T06:34:13.874Z,5.80
2022-10-14T06:36:41.716Z,5.67
2022-10-14T06:39:10.889Z,6.07
2022-10-14T06:41:38.779Z,7.50
2022-10-14T06:44:06.625Z,5.60
2022-10-14T06:46:34.460Z,5.70
2022-10-14T06:49:02.252Z,5.17
2022-10-14T06:51:31.435Z,4.33
2022-10-14T06:53:59.277Z,5.10
2022-10-14T06:56:27.387Z,5.30
2022-10-14T06:58:55.662Z,5.03
2022-10-14T07:01:23.932Z,4.30
2022-10-14T07:03:54.295Z,4.30
2022-10-14T07:06:24.521Z,4.70
2022-10-14T07:08:54.015Z,4.17
2022-10-14T07:11:22.197Z,5.10
2022-10-14T07:13:50.005Z,4.50
2022-10-14T07:16:17.848Z,4.97
2022-10-14T07:18:45.675Z,4.50
2022-10-14T07:21:13.539Z,4.43
2022-10-14T07:23:41.507Z,4.47
2022-10-14T07:26:10.713Z,5.00
2022-10-14T07:28:38.887Z,4.23
2022-10-14T07:31:09.812Z,4.60
2022-10-14T07:33:39.237Z,4.27
2022-10-14T07:36:09.782Z,3.80
2022-10-14T07:38:38.157Z,4.43
2022-10-14T07:41:08.606Z,4.03
2022-10-14T07:43:37.769Z,4.73
2022-10-14T07:46:08.299Z,4.70
2022-10-14T07:48:55.815Z,3.70
2022-10-14T07:51:24.523Z,4.53
2022-10-14T07:53:53.004Z,4.20
2022-10-14T07:56:23.314Z,3.83
2022-10-14T07:58:52.517Z,4.77
2022-10-14T08:01:20.485Z,4.77
2022-10-14T08:03:49.814Z,4.67
2022-10-14T08:06:17.805Z,4.00
2022-10-14T08:08:45.602Z,5.40
2022-10-14T08:11:15.945Z,4.60
2022-10-14T08:13:46.217Z,4.50
2022-10-14T08:16:17.972Z,4.43
2022-10-14T08:18:46.025Z,5.30
2022-10-14T08:21:14.375Z,5.00
2022-10-14T08:23:42.261Z,4.83
2022-10-14T08:26:20.872Z,4.23
2022-10-14T08:28:49.645Z,4.67
2022-10-14T08:31:19.352Z,5.40
2022-10-14T08:33:47.223Z,4.73
2022-10-14T08:36:16.086Z,3.97
2022-10-14T08:38:43.895Z,4.20
2022-10-14T08:41:27.661Z,4.33
2022-10-14T08:44:12.298Z,4.43
2022-10-14T08:46:49.488Z,4.60
2022-10-14T08:49:25.107Z,3.80
2022-10-14T08:51:57.432Z,3.30
2022-10-14T08:54:33.321Z,3.30
2022-10-14T08:57:01.959Z,2.80
2022-10-14T08:59:30.115Z,2.63
2022-10-14T09:02:05.312Z,2.30
2022-10-14T09:04:36.379Z,2.13
2022-10-14T09:07:05.300Z,2.00
2022-10-14T09:09:40.360Z,2.40
2022-10-14T09:12:14.283Z,2.40
2022-10-14T09:14:48.206Z,2.27
2022-10-14T09:17:23.067Z,2.37
2022-10-14T09:19:55.419Z,1.90
2022-10-14T09:22:24.953Z,2.00
2022-10-14T09:24:52.826Z,1.70
2022-10-14T09:27:22.615Z,1.90
2022-10-14T09:29:54.780Z,1.87
2022-10-14T09:32:29.489Z,2.10
2022-10-14T09:34:58.847Z,2.07
2022-10-14T09:37:29.127Z,2.50
2022-10-14T09:40:05.785Z,1.80
2022-10-14T09:42:43.612Z,1.60
2022-10-14T09:45:13.109Z,2.27
2022-10-14T09:47:47.493Z,2.27
2022-10-14T09:50:23.573Z,1.83
2022-10-14T09:52:56.423Z,1.77
2022-10-14T09:55:25.431Z,2.00
2022-10-14T09:58:04.309Z,1.93
2022-10-14T10:00:33.730Z,2.30
2022-10-14T10:03:03.009Z,2.03
2022-10-14T10:05:33.142Z,1.90
2022-10-14T10:08:03.653Z,1.80
2022-10-14T10:10:34.776Z,1.77
2022-10-14T10:13:03.383Z,1.80
2022-10-14T10:15:31.349Z,2.20
2022-10-14T10:17:59.220Z,2.03
2022-10-14T10:20:33.042Z,2.10
2022-10-14T10:23:25.262Z,1.53
2022-10-14T10:25:53.656Z,1.90
2022-10-14T10:28:32.081Z,1.90
2022-10-14T10:31:07.866Z,1.83
2022-10-14T10:33:47.183Z,1.47
2022-10-14T10:36:23.908Z,1.40
2022-10-14T10:39:00.311Z,1.77
2022-10-14T10:41:41.287Z,1.57
2022-10-14T10:44:34.703Z,1.80
2022-10-14T10:47:20.489Z,1.33
2022-10-14T10:50:04.682Z,1.40
2022-10-14T10:52:46.008Z,1.37
2022-10-14T10:55:24.150Z,1.20
2022-10-14T10:58:06.158Z,1.60
2022-10-14T11:00:46.419Z,1.63
2022-10-14T11:03:36.730Z,1.30
2022-10-14T11:06:11.616Z,1.23
2022-10-14T11:09:13.732Z,1.60
2022-10-14T11:12:07.620Z,1.57
2022-10-14T11:14:54.106Z,1.50
2022-10-14T11:17:28.401Z,1.63
2022-10-14T11:20:05.340Z,1.70
2022-10-14T11:22:52.161Z,1.50
2022-10-14T11:25:33.092Z,2.20
2022-10-14T11:28:10.531Z,1.37
2022-10-14T11:30:45.161Z,1.50
2022-10-14T11:33:30.344Z,1.57
2022-10-14T11:36:11.469Z,1.87
2022-10-14T11:38:49.753Z,1.17
2022-10-14T11:41:26.284Z,1.20
2022-10-14T11:44:04.780Z,1.20
2022-10-14T11:46:37.556Z,1.37
2022-10-14T11:49:12.101Z,1.23
2022-10-14T11:51:43.611Z,1.30
2022-10-14T11:54:16.860Z,1.40
2022-10-14T11:56:54.643Z,1.33
2022-10-14T11:59:36.712Z,1.20
2022-10-14T12:02:18.859Z,1.50
2022-10-14T12:04:53.020Z,1.40
2022-10-14T12:07:26.097Z,1.50
2022-10-14T12:09:59.966Z,1.47
2022-10-14T12:12:31.547Z,1.30
2022-10-14T12:15:02.411Z,1.60
2022-10-14T12:17:35.212Z,1.50
2022-10-14T12:20:17.986Z,1.40
2022-10-14T12:22:49.036Z,1.50
2022-10-14T12:25:21.717Z,1.50
2022-10-14T12:27:52.292Z,1.67
2022-10-14T12:30:38.252Z,1.47
2022-10-14T12:33:08.244Z,1.43
2022-10-14T12:35:59.024Z,1.40
2022-10-14T12:38:28.964Z,1.83
2022-10-14T12:41:18.677Z,1.83
2022-10-14T12:44:00.949Z,1.60
2022-10-14T12:46:31.008Z,2.97
2022-10-14T12:48:59.721Z,2.17
2022-10-14T12:51:28.087Z,1.67
2022-10-14T12:54:05.598Z,1.67
2022-10-14T12:56:45.506Z,1.70
2022-10-14T12:59:25.436Z,1.90
2022-10-14T13:01:59.051Z,1.73
2022-10-14T13:04:27.626Z,1.23
2022-10-14T13:07:40.282Z,1.60
2022-10-14T13:10:48.266Z,1.50
2022-10-14T13:13:53.378Z,1.70
2022-10-14T13:17:03.648Z,1.50
2022-10-14T13:19:47.050Z,1.57
2022-10-14T13:22:40.188Z,1.63
2022-10-14T13:25:17.142Z,1.47
2022-10-14T13:27:57.175Z,1.90
2022-10-14T13:30:34.241Z,1.70
2022-10-14T13:33:10.110Z,1.90
2022-10-14T13:35:51.783Z,1.57
2022-10-14T13:38:23.650Z,1.47
2022-10-14T13:40:53.857Z,1.90
2022-10-14T13:43:27.085Z,1.87
2022-10-14T13:45:59.495Z,1.87
2022-10-14T13:48:33.202Z,1.60
2022-10-14T13:51:36.270Z,1.87
2022-10-14T13:54:16.221Z,2.27
2022-10-14T13:56:44.598Z,2.50
2022-10-14T13:59:43.136Z,2.00
2022-10-14T14:02:15.528Z,1.60
2022-10-14T14:04:49.112Z,1.60
2022-10-14T14:08:14.169Z,1.20
2022-10-14T14:10:12.198Z,1.50
2022-10-14T14:12:43.979Z,1.37
2022-10-14T14:15:20.438Z,1.80
2022-10-14T14:17:49.342Z,1.80
2022-10-14T14:20:21.429Z,1.57
2022-10-14T14:22:51.223Z,1.50
2022-10-14T14:25:35.294Z,1.50
2022-10-14T14:28:05.989Z,1.63
2022-10-14T14:30:35.942Z,1.50
2022-10-14T14:33:06.015Z,1.70
2022-10-14T14:35:33.916Z,1.80
2022-10-14T14:38:03.535Z,1.30
2022-10-14T14:40:32.332Z,1.40
2022-10-14T14:43:02.948Z,1.10
2022-10-14T14:45:32.831Z,1.30
2022-10-14T14:48:07.383Z,1.60
2022-10-14T14:50:38.515Z,1.40
2022-10-14T14:53:12.885Z,1.17
2022-10-14T14:55:45.420Z,1.23
2022-10-14T14:58:25.893Z,2.10
2022-10-14T15:00:54.947Z,1.90
2022-10-14T15:03:24.680Z,2.30
2022-10-14T15:05:56.989Z,3.10
2022-10-14T15:08:28.907Z,2.33
2022-10-14T15:10:58.463Z,1.60
2022-10-14T15:13:29.018Z,2.40
2022-10-14T15:15:56.999Z,1.80
2022-10-14T15:18:28.122Z,1.60
2022-10-14T15:21:07.621Z,1.40
2022-10-14T15:24:00.325Z,1.90
2022-10-14T15:26:34.804Z,1.40
2022-10-14T15:29:14.623Z,1.00
2022-10-14T15:31:44.632Z,1.00
2022-10-14T15:34:21.346Z,1.00
2022-10-14T15:36:52.308Z,1.10
2022-10-14T15:39:22.596Z,1.10
2022-10-14T15:41:50.715Z,1.00
2022-10-14T15:44:18.581Z,0.80
2022-10-14T15:47:04.856Z,1.10
2022-10-14T15:49:34.870Z,1.40
2022-10-14T15:52:02.833Z,1.00
2022-10-14T15:54:32.051Z,1.33
2022-10-14T15:57:00.754Z,1.30
2022-10-14T15:59:28.600Z,1.33
2022-10-14T16:01:56.567Z,1.40
2022-10-14T16:04:27.794Z,1.80
2022-10-14T16:06:57.646Z,1.60
2022-10-14T16:09:27.571Z,2.87
2022-10-14T16:11:59.543Z,2.50
2022-10-14T16:14:28.112Z,1.33
2022-10-14T16:16:56.386Z,0.93
2022-10-14T16:19:25.338Z,0.90
2022-10-14T16:21:53.174Z,1.23
2022-10-14T16:24:25.363Z,1.10
2022-10-14T16:26:53.984Z,1.13
2022-10-14T16:29:23.355Z,1.33
2022-10-14T16:31:52.390Z,1.37
2022-10-14T16:34:21.517Z,1.30
2022-10-14T16:36:49.990Z,1.53
2022-10-14T16:39:18.973Z,1.43
2022-10-14T16:41:47.154Z,2.73
2022-10-14T16:44:25.252Z,3.10
2022-10-14T16:47:12.975Z,5.30
2022-10-14T16:49:41.078Z,1.60
2022-10-14T16:52:09.627Z,3.27
2022-10-14T16:54:38.079Z,1.80
2022-10-14T16:57:06.789Z,3.87
2022-10-14T16:59:34.656Z,3.53
2022-10-14T17:02:04.436Z,6.63
2022-10-14T17:04:33.493Z,2.97
2022-10-14T17:07:06.982Z,1.90
2022-10-14T17:09:36.049Z,1.73
2022-10-14T17:12:08.143Z,1.53
2022-10-14T17:14:39.278Z,1.33
2022-10-14T17:17:08.823Z,1.30
2022-10-14T17:19:36.604Z,1.63
2022-10-14T17:22:04.422Z,1.50
2022-10-14T17:24:32.235Z,2.37
2022-10-14T17:27:04.406Z,1.60
2022-10-14T17:29:32.480Z,1.27
2022-10-14T17:32:00.325Z,1.50
2022-10-14T17:34:29.580Z,1.57
2022-10-14T17:36:59.486Z,2.23
2022-10-14T17:39:29.389Z,1.60
2022-10-14T17:41:57.521Z,1.20
2022-10-14T17:44:25.707Z,1.90
2022-10-14T17:46:54.056Z,2.90
2022-10-14T17:49:22.124Z,2.93
2022-10-14T17:51:51.314Z,1.60
2022-10-14T17:54:19.316Z,2.30
2022-10-14T17:56:47.203Z,1.50
2022-10-14T17:59:14.992Z,1.60
2022-10-14T18:02:01.457Z,1.43
2022-10-14T18:04:30.250Z,1.50
2022-10-14T18:06:59.556Z,2.17
2022-10-14T18:09:27.361Z,1.80
2022-10-14T18:12:08.258Z,1.43
2022-10-14T18:14:37.541Z,1.80
2022-10-14T18:17:05.763Z,2.13
2022-10-14T18:19:33.816Z,1.70
2022-10-14T18:22:03.276Z,1.30
2022-10-14T18:24:31.075Z,1.83
2022-10-14T18:26:58.887Z,1.83
2022-10-14T18:29:26.793Z,1.60
2022-10-14T18:31:54.622Z,1.57
2022-10-14T18:34:24.864Z,1.60
2022-10-14T18:36:52.710Z,1.80
2022-10-14T18:39:22.051Z,4.50
2022-10-14T18:41:50.128Z,3.30
2022-10-14T18:44:18.121Z,3.63
2022-10-14T18:46:47.444Z,1.70
2022-10-14T18:49:15.436Z,1.10
2022-10-14T18:51:43.301Z,1.50
2022-10-14T18:54:14.946Z,1.60
2022-10-14T18:56:45.505Z,1.20
2022-10-14T18:59:17.669Z,1.10
2022-10-14T19:01:45.981Z,1.13
2022-10-14T19:04:16.031Z,1.30
2022-10-14T19:06:45.861Z,1.20
2022-10-14T19:09:14.406Z,1.30
2022-10-14T19:11:44.611Z,0.90
2022-10-14T19:14:14.230Z,1.17
2022-10-14T19:16:42.711Z,1.27
2022-10-14T19:19:15.103Z,1.50
2022-10-14T19:21:43.370Z,1.20
2022-10-14T19:24:13.307Z,0.93
2022-10-14T19:26:44.622Z,0.90
2022-10-14T19:29:14.172Z,1.27
2022-10-14T19:31:42.249Z,1.07
2022-10-14T19:34:12.879Z,1.10
2022-10-14T19:36:41.728Z,1.10
2022-10-14T19:39:13.003Z,1.03
2022-10-14T19:41:43.213Z,0.90
2022-10-14T19:44:13.369Z,0.73
2022-10-14T19:46:41.539Z,0.90
2022-10-14T19:49:11.540Z,0.90
2022-10-14T19:51:39.747Z,1.00
2022-10-14T19:54:08.186Z,1.00
2022-10-14T19:56:36.043Z,0.90
2022-10-14T19:59:03.880Z,0.93
2022-10-14T20:01:33.230Z,1.10
2022-10-14T20:04:02.671Z,0.80
2022-10-14T20:06:34.285Z,0.70
2022-10-14T20:09:02.272Z,0.80
2022-10-14T20:11:30.755Z,1.00
2022-10-14T20:13:58.594Z,0.80
2022-10-14T20:16:27.127Z,0.80
2022-10-14T20:18:56.673Z,0.93
2022-10-14T20:21:24.707Z,0.80
2022-10-14T20:23:52.576Z,1.10
2022-10-14T20:26:22.557Z,0.80
2022-10-14T20:28:51.081Z,0.73
2022-10-14T20:31:21.826Z,0.90
2022-10-14T20:33:49.920Z,0.90
2022-10-14T20:36:20.845Z,0.80
2022-10-14T20:38:49.740Z,0.90
2022-10-14T20:41:19.489Z,0.83
2022-10-14T20:43:47.830Z,0.60
2022-10-14T20:46:16.046Z,0.77
2022-10-14T20:48:44.316Z,1.00
2022-10-14T20:51:14.153Z,0.80
2022-10-14T20:53:43.357Z,0.60
2022-10-14T20:56:14.014Z,0.60
2022-10-14T20:58:42.462Z,0.70
2022-10-14T21:01:12.384Z,0.60
2022-10-14T21:03:40.732Z,0.60
2022-10-14T21:06:10.651Z,0.70
2022-10-14T21:08:38.994Z,0.70
2022-10-14T21:11:13.818Z,0.77
2022-10-14T21:13:45.394Z,0.70
2022-10-14T21:16:20.249Z,0.60
2022-10-14T21:18:49.112Z,0.63
2022-10-14T21:21:18.715Z,0.70
2022-10-14T21:23:46.675Z,0.70
2022-10-14T21:26:16.122Z,0.60
2022-10-14T21:28:44.228Z,0.80
2022-10-14T21:31:17.368Z,0.60
2022-10-14T21:33:47.070Z,0.60
2022-10-14T21:36:17.116Z,0.50
2022-10-14T21:38:45.235Z,0.50
2022-10-14T21:41:14.851Z,0.60
2022-10-14T21:43:43.351Z,0.60
2022-10-14T21:46:12.826Z,0.67
2022-10-14T21:48:41.149Z,0.70
2022-10-14T21:51:11.311Z,0.63
2022-10-14T21:53:40.236Z,0.60
2022-10-14T21:56:08.630Z,0.70
2022-10-14T21:58:38.043Z,0.80
2022-10-14T22:01:08.432Z,0.73
2022-10-14T22:03:36.808Z,0.70
2022-10-14T22:06:07.549Z,0.80
2022-10-14T22:08:36.984Z,0.60
2022-10-14T22:11:05.826Z,0.60
2022-10-14T22:13:37.718Z,1.10
2022-10-14T22:16:05.823Z,0.70
2022-10-14T22:18:33.673Z,0.70
2022-10-14T22:21:04.998Z,0.70
2022-10-14T22:23:33.127Z,0.70
2022-10-14T22:26:02.756Z,0.70
2022-10-14T22:28:31.568Z,0.70
2022-10-14T22:31:06.411Z,0.70
2022-10-14T22:33:36.085Z,0.60
2022-10-14T22:36:08.996Z,0.63
2022-10-14T22:38:37.488Z,0.70
2022-10-14T22:41:06.380Z,0.70
2022-10-14T22:43:34.694Z,0.60
2022-10-14T22:46:02.834Z,0.80
2022-10-14T22:48:32.878Z,0.73
2022-10-14T22:51:03.480Z,0.90
2022-10-14T22:53:31.694Z,0.70
2022-10-14T22:55:59.850Z,0.70
2022-10-14T22:58:28.070Z,0.63
2022-10-14T23:00:55.900Z,0.57
2022-10-14T23:03:23.746Z,0.60
2022-10-14T23:05:52.923Z,0.70
2022-10-14T23:08:21.129Z,0.80
2022-10-14T23:10:48.965Z,0.60
2022-10-14T23:13:16.793Z,0.60
2022-10-14T23:15:44.626Z,0.80
2022-10-14T23:18:12.429Z,0.60
2022-10-14T23:20:40.259Z,0.70
2022-10-14T23:23:09.411Z,0.70
2022-10-14T23:25:41.206Z,0.83
2022-10-14T23:28:09.616Z,0.60
2022-10-14T23:30:37.523Z,0.70
2022-10-14T23:33:05.808Z,0.67
2022-10-14T23:35:36.467Z,0.60
2022-10-14T23:38:04.244Z,0.60
2022-10-14T23:40:33.461Z,0.70
2022-10-14T23:43:01.516Z,0.80
2022-10-14T23:45:29.370Z,0.90
2022-10-14T23:47:57.208Z,0.70
2022-10-14T23:50:25.054Z,0.60
2022-10-14T23:52:52.887Z,0.80
2022-10-14T23:55:20.729Z,0.80
2022-10-14T23:57:49.930Z,0.80
